sensor_id;sensor_type;location;lat;lon;timestamp;temperature;humidity
54431;DHT22;40342;52.998;5.862;2024-03-06T00:02:11;5.30;99.90
54431;DHT22;40342;52.998;5.862;2024-03-06T00:04:37;5.30;99.90
54431;DHT22;40342;52.998;5.862;2024-03-06T00:07:04;5.30;99.90
54431;DHT22;40342;52.998;5.862;2024-03-06T00:09:29;5.30;99.90
54431;DHT22;40342;52.998;5.862;2024-03-06T00:11:55;5.20;99.90
54431;DHT22;40342;52.998;5.862;2024-03-06T00:14:21;5.20;99.90
54431;DHT22;40342;52.998;5.862;2024-03-06T00:16:48;5.20;99.90
54431;DHT22;40342;52.998;5.862;2024-03-06T00:19:16;5.20;99.90
54431;DHT22;40342;52.998;5.862;2024-03-06T00:21:41;5.20;99.90
54431;DHT22;40342;52.998;5.862;2024-03-06T00:24:07;5.20;99.90
54431;DHT22;40342;52.998;5.862;2024-03-06T00:26:33;5.20;99.90
54431;DHT22;40342;52.998;5.862;2024-03-06T00:28:59;5.20;99.90
54431;DHT22;40342;52.998;5.862;2024-03-06T00:31:25;5.20;99.90
54431;DHT22;40342;52.998;5.862;2024-03-06T00:33:50;5.20;99.90
54431;DHT22;40342;52.998;5.862;2024-03-06T00:36:16;5.20;99.90
54431;DHT22;40342;52.998;5.862;2024-03-06T00:38:42;5.20;99.90
54431;DHT22;40342;52.998;5.862;2024-03-06T00:41:08;5.10;99.90
54431;DHT22;40342;52.998;5.862;2024-03-06T00:43:34;5.20;99.90
54431;DHT22;40342;52.998;5.862;2024-03-06T00:45:59;5.10;99.90
54431;DHT22;40342;52.998;5.862;2024-03-06T00:48:25;5.10;99.90
54431;DHT22;40342;52.998;5.862;2024-03-06T00:50:51;5.10;99.90
54431;DHT22;40342;52.998;5.862;2024-03-06T00:53:16;5.10;99.90
54431;DHT22;40342;52.998;5.862;2024-03-06T00:55:42;5.10;99.90
54431;DHT22;40342;52.998;5.862;2024-03-06T00:58:08;5.10;99.90
54431;DHT22;40342;52.998;5.862;2024-03-06T01:00:33;5.10;99.90
54431;DHT22;40342;52.998;5.862;2024-03-06T01:02:59;5.10;99.90
54431;DHT22;40342;52.998;5.862;2024-03-06T01:05:24;5.10;99.90
54431;DHT22;40342;52.998;5.862;2024-03-06T01:07:50;5.10;99.90
54431;DHT22;40342;52.998;5.862;2024-03-06T01:10:16;5.10;99.90
54431;DHT22;40342;52.998;5.862;2024-03-06T01:12:41;5.10;99.90
54431;DHT22;40342;52.998;5.862;2024-03-06T01:15:11;5.10;99.90
54431;DHT22;40342;52.998;5.862;2024-03-06T01:17:36;5.10;99.90
54431;DHT22;40342;52.998;5.862;2024-03-06T01:20:02;5.10;99.90
54431;DHT22;40342;52.998;5.862;2024-03-06T01:22:32;5.10;99.90
54431;DHT22;40342;52.998;5.862;2024-03-06T01:24:58;5.20;99.90
54431;DHT22;40342;52.998;5.862;2024-03-06T01:27:25;5.10;99.90
54431;DHT22;40342;52.998;5.862;2024-03-06T01:29:50;5.10;99.90
54431;DHT22;40342;52.998;5.862;2024-03-06T01:32:16;5.10;99.90
54431;DHT22;40342;52.998;5.862;2024-03-06T01:34:41;5.10;99.90
54431;DHT22;40342;52.998;5.862;2024-03-06T01:37:07;5.10;99.90
54431;DHT22;40342;52.998;5.862;2024-03-06T01:39:33;5.10;99.90
54431;DHT22;40342;52.998;5.862;2024-03-06T01:42:01;5.10;99.90
54431;DHT22;40342;52.998;5.862;2024-03-06T01:44:27;5.10;99.90
54431;DHT22;40342;52.998;5.862;2024-03-06T01:46:52;5.10;99.90
54431;DHT22;40342;52.998;5.862;2024-03-06T01:49:21;5.10;99.90
54431;DHT22;40342;52.998;5.862;2024-03-06T01:51:55;5.10;99.90
54431;DHT22;40342;52.998;5.862;2024-03-06T01:54:23;5.10;99.90
54431;DHT22;40342;52.998;5.862;2024-03-06T01:56:50;5.10;99.90
54431;DHT22;40342;52.998;5.862;2024-03-06T01:59:17;5.10;99.90
54431;DHT22;40342;52.998;5.862;2024-03-06T02:01:45;5.10;99.90
54431;DHT22;40342;52.998;5.862;2024-03-06T02:04:12;5.10;99.90
54431;DHT22;40342;52.998;5.862;2024-03-06T02:06:41;5.10;99.90
54431;DHT22;40342;52.998;5.862;2024-03-06T02:09:07;5.10;99.90
54431;DHT22;40342;52.998;5.862;2024-03-06T02:11:34;5.00;99.90
54431;DHT22;40342;52.998;5.862;2024-03-06T02:14:00;5.00;99.90
54431;DHT22;40342;52.998;5.862;2024-03-06T02:16:26;5.00;99.90
54431;DHT22;40342;52.998;5.862;2024-03-06T02:18:56;5.10;99.90
54431;DHT22;40342;52.998;5.862;2024-03-06T02:21:25;5.00;99.90
54431;DHT22;40342;52.998;5.862;2024-03-06T02:23:51;5.00;99.90
54431;DHT22;40342;52.998;5.862;2024-03-06T02:26:18;5.10;99.90
54431;DHT22;40342;52.998;5.862;2024-03-06T02:28:54;5.10;99.90
54431;DHT22;40342;52.998;5.862;2024-03-06T02:31:21;5.10;99.90
54431;DHT22;40342;52.998;5.862;2024-03-06T02:33:47;5.10;99.90
54431;DHT22;40342;52.998;5.862;2024-03-06T02:36:14;5.10;99.90
54431;DHT22;40342;52.998;5.862;2024-03-06T02:38:40;5.10;99.90
54431;DHT22;40342;52.998;5.862;2024-03-06T02:41:06;5.10;99.90
54431;DHT22;40342;52.998;5.862;2024-03-06T02:43:35;5.00;99.90
54431;DHT22;40342;52.998;5.862;2024-03-06T02:46:01;5.00;99.90
54431;DHT22;40342;52.998;5.862;2024-03-06T02:48:27;5.00;99.90
54431;DHT22;40342;52.998;5.862;2024-03-06T02:50:53;5.00;99.90
54431;DHT22;40342;52.998;5.862;2024-03-06T02:53:18;4.90;99.90
54431;DHT22;40342;52.998;5.862;2024-03-06T02:55:44;4.90;99.90
54431;DHT22;40342;52.998;5.862;2024-03-06T02:58:10;4.90;99.90
54431;DHT22;40342;52.998;5.862;2024-03-06T03:00:35;4.90;99.90
54431;DHT22;40342;52.998;5.862;2024-03-06T03:03:02;4.90;99.90
54431;DHT22;40342;52.998;5.862;2024-03-06T03:05:28;4.90;99.90
54431;DHT22;40342;52.998;5.862;2024-03-06T03:07:53;4.90;99.90
54431;DHT22;40342;52.998;5.862;2024-03-06T03:10:19;4.90;99.90
54431;DHT22;40342;52.998;5.862;2024-03-06T03:12:45;4.80;99.90
54431;DHT22;40342;52.998;5.862;2024-03-06T03:15:11;4.80;99.90
54431;DHT22;40342;52.998;5.862;2024-03-06T03:17:36;4.80;99.90
54431;DHT22;40342;52.998;5.862;2024-03-06T03:20:02;4.80;99.90
54431;DHT22;40342;52.998;5.862;2024-03-06T03:22:52;4.80;99.90
54431;DHT22;40342;52.998;5.862;2024-03-06T03:25:17;4.80;99.90
54431;DHT22;40342;52.998;5.862;2024-03-06T03:27:43;4.80;99.90
54431;DHT22;40342;52.998;5.862;2024-03-06T03:30:12;4.80;99.90
54431;DHT22;40342;52.998;5.862;2024-03-06T03:32:38;4.80;99.90
54431;DHT22;40342;52.998;5.862;2024-03-06T03:35:05;4.80;99.90
54431;DHT22;40342;52.998;5.862;2024-03-06T03:37:31;4.80;99.90
54431;DHT22;40342;52.998;5.862;2024-03-06T03:39:57;4.80;99.90
54431;DHT22;40342;52.998;5.862;2024-03-06T03:42:23;4.80;99.90
54431;DHT22;40342;52.998;5.862;2024-03-06T03:44:48;4.80;99.90
54431;DHT22;40342;52.998;5.862;2024-03-06T03:47:14;4.80;99.90
54431;DHT22;40342;52.998;5.862;2024-03-06T03:49:39;4.70;99.90
54431;DHT22;40342;52.998;5.862;2024-03-06T03:52:05;4.80;99.90
54431;DHT22;40342;52.998;5.862;2024-03-06T03:54:32;4.80;99.90
54431;DHT22;40342;52.998;5.862;2024-03-06T03:56:57;4.80;99.90
54431;DHT22;40342;52.998;5.862;2024-03-06T03:59:24;4.70;99.90
54431;DHT22;40342;52.998;5.862;2024-03-06T04:01:50;4.80;99.90
54431;DHT22;40342;52.998;5.862;2024-03-06T04:04:16;4.70;99.90
54431;DHT22;40342;52.998;5.862;2024-03-06T04:06:41;4.70;99.90
54431;DHT22;40342;52.998;5.862;2024-03-06T04:09:07;4.80;99.90
54431;DHT22;40342;52.998;5.862;2024-03-06T04:11:36;4.80;99.90
54431;DHT22;40342;52.998;5.862;2024-03-06T04:14:03;4.80;99.90
54431;DHT22;40342;52.998;5.862;2024-03-06T04:16:29;4.80;99.90
54431;DHT22;40342;52.998;5.862;2024-03-06T04:18:54;4.80;99.90
54431;DHT22;40342;52.998;5.862;2024-03-06T04:21:20;4.90;99.90
54431;DHT22;40342;52.998;5.862;2024-03-06T04:23:46;4.80;99.90
54431;DHT22;40342;52.998;5.862;2024-03-06T04:26:11;4.80;99.90
54431;DHT22;40342;52.998;5.862;2024-03-06T04:28:37;4.90;99.90
54431;DHT22;40342;52.998;5.862;2024-03-06T04:31:03;4.80;99.90
54431;DHT22;40342;52.998;5.862;2024-03-06T04:33:29;4.90;99.90
54431;DHT22;40342;52.998;5.862;2024-03-06T04:35:55;4.90;99.90
54431;DHT22;40342;52.998;5.862;2024-03-06T04:38:20;4.80;99.90
54431;DHT22;40342;52.998;5.862;2024-03-06T04:40:46;4.90;99.90
54431;DHT22;40342;52.998;5.862;2024-03-06T04:43:11;4.80;99.90
54431;DHT22;40342;52.998;5.862;2024-03-06T04:45:37;4.90;99.90
54431;DHT22;40342;52.998;5.862;2024-03-06T04:48:03;4.90;99.90
54431;DHT22;40342;52.998;5.862;2024-03-06T04:50:29;4.90;99.90
54431;DHT22;40342;52.998;5.862;2024-03-06T04:52:55;4.90;99.90
54431;DHT22;40342;52.998;5.862;2024-03-06T04:55:21;4.90;99.90
54431;DHT22;40342;52.998;5.862;2024-03-06T04:57:48;5.00;99.90
54431;DHT22;40342;52.998;5.862;2024-03-06T05:00:14;4.90;99.90
54431;DHT22;40342;52.998;5.862;2024-03-06T05:02:41;4.90;99.90
54431;DHT22;40342;52.998;5.862;2024-03-06T05:05:08;4.90;99.90
54431;DHT22;40342;52.998;5.862;2024-03-06T05:07:33;4.90;99.90
54431;DHT22;40342;52.998;5.862;2024-03-06T05:09:59;4.90;99.90
54431;DHT22;40342;52.998;5.862;2024-03-06T05:12:26;4.90;99.90
54431;DHT22;40342;52.998;5.862;2024-03-06T05:14:52;4.90;99.90
54431;DHT22;40342;52.998;5.862;2024-03-06T05:17:18;4.90;99.90
54431;DHT22;40342;52.998;5.862;2024-03-06T05:19:45;4.90;99.90
54431;DHT22;40342;52.998;5.862;2024-03-06T05:22:10;4.80;99.90
54431;DHT22;40342;52.998;5.862;2024-03-06T05:24:39;4.90;99.90
54431;DHT22;40342;52.998;5.862;2024-03-06T05:27:05;4.80;99.90
54431;DHT22;40342;52.998;5.862;2024-03-06T05:29:30;4.80;99.90
54431;DHT22;40342;52.998;5.862;2024-03-06T05:31:56;4.80;99.90
54431;DHT22;40342;52.998;5.862;2024-03-06T05:34:24;4.80;99.90
54431;DHT22;40342;52.998;5.862;2024-03-06T05:36:50;4.80;99.90
54431;DHT22;40342;52.998;5.862;2024-03-06T05:39:16;4.80;99.90
54431;DHT22;40342;52.998;5.862;2024-03-06T05:41:43;4.70;99.90
54431;DHT22;40342;52.998;5.862;2024-03-06T05:44:09;4.80;99.90
54431;DHT22;40342;52.998;5.862;2024-03-06T05:46:35;4.80;99.90
54431;DHT22;40342;52.998;5.862;2024-03-06T05:49:01;4.70;99.90
54431;DHT22;40342;52.998;5.862;2024-03-06T05:51:27;4.70;99.90
54431;DHT22;40342;52.998;5.862;2024-03-06T05:53:53;4.70;99.90
54431;DHT22;40342;52.998;5.862;2024-03-06T05:56:19;4.70;99.90
54431;DHT22;40342;52.998;5.862;2024-03-06T05:58:45;4.70;99.90
54431;DHT22;40342;52.998;5.862;2024-03-06T06:01:15;4.70;99.90
54431;DHT22;40342;52.998;5.862;2024-03-06T06:03:44;4.70;99.90
54431;DHT22;40342;52.998;5.862;2024-03-06T06:06:10;4.70;99.90
54431;DHT22;40342;52.998;5.862;2024-03-06T06:08:35;4.80;99.90
54431;DHT22;40342;52.998;5.862;2024-03-06T06:11:02;4.70;99.90
54431;DHT22;40342;52.998;5.862;2024-03-06T06:13:28;4.70;99.90
54431;DHT22;40342;52.998;5.862;2024-03-06T06:15:54;4.70;99.90
54431;DHT22;40342;52.998;5.862;2024-03-06T06:18:20;4.70;99.90
54431;DHT22;40342;52.998;5.862;2024-03-06T06:20:46;4.70;99.90
54431;DHT22;40342;52.998;5.862;2024-03-06T06:23:11;4.70;99.90
54431;DHT22;40342;52.998;5.862;2024-03-06T06:25:37;4.70;99.90
54431;DHT22;40342;52.998;5.862;2024-03-06T06:28:03;4.70;99.90
54431;DHT22;40342;52.998;5.862;2024-03-06T06:30:29;4.70;99.90
54431;DHT22;40342;52.998;5.862;2024-03-06T06:32:55;4.70;99.90
54431;DHT22;40342;52.998;5.862;2024-03-06T06:35:20;4.80;99.90
54431;DHT22;40342;52.998;5.862;2024-03-06T06:37:47;4.80;99.90
54431;DHT22;40342;52.998;5.862;2024-03-06T06:40:13;4.80;99.90
54431;DHT22;40342;52.998;5.862;2024-03-06T06:42:47;4.80;99.90
54431;DHT22;40342;52.998;5.862;2024-03-06T06:45:16;4.80;99.90
54431;DHT22;40342;52.998;5.862;2024-03-06T06:47:42;4.80;99.90
54431;DHT22;40342;52.998;5.862;2024-03-06T06:50:07;4.80;99.90
54431;DHT22;40342;52.998;5.862;2024-03-06T06:52:35;4.80;99.90
54431;DHT22;40342;52.998;5.862;2024-03-06T06:55:01;4.80;99.90
54431;DHT22;40342;52.998;5.862;2024-03-06T06:57:26;4.80;99.90
54431;DHT22;40342;52.998;5.862;2024-03-06T06:59:52;4.80;99.90
54431;DHT22;40342;52.998;5.862;2024-03-06T07:02:18;4.80;99.90
54431;DHT22;40342;52.998;5.862;2024-03-06T07:04:43;4.80;99.90
54431;DHT22;40342;52.998;5.862;2024-03-06T07:07:09;4.80;99.90
54431;DHT22;40342;52.998;5.862;2024-03-06T07:09:34;4.90;99.90
54431;DHT22;40342;52.998;5.862;2024-03-06T07:12:00;4.80;99.90
54431;DHT22;40342;52.998;5.862;2024-03-06T07:14:26;4.90;99.90
54431;DHT22;40342;52.998;5.862;2024-03-06T07:16:51;4.90;99.90
54431;DHT22;40342;52.998;5.862;2024-03-06T07:19:17;4.80;99.90
54431;DHT22;40342;52.998;5.862;2024-03-06T07:21:44;4.90;99.90
54431;DHT22;40342;52.998;5.862;2024-03-06T07:24:09;4.90;99.90
54431;DHT22;40342;52.998;5.862;2024-03-06T07:26:35;4.90;99.90
54431;DHT22;40342;52.998;5.862;2024-03-06T07:29:01;4.90;99.90
54431;DHT22;40342;52.998;5.862;2024-03-06T07:31:27;4.90;99.90
54431;DHT22;40342;52.998;5.862;2024-03-06T07:33:52;5.00;99.90
54431;DHT22;40342;52.998;5.862;2024-03-06T07:36:19;5.00;99.90
54431;DHT22;40342;52.998;5.862;2024-03-06T07:38:45;5.00;99.90
54431;DHT22;40342;52.998;5.862;2024-03-06T07:41:10;5.00;99.90
54431;DHT22;40342;52.998;5.862;2024-03-06T07:43:36;5.00;99.90
54431;DHT22;40342;52.998;5.862;2024-03-06T07:46:04;5.00;99.90
54431;DHT22;40342;52.998;5.862;2024-03-06T07:48:41;5.00;99.90
54431;DHT22;40342;52.998;5.862;2024-03-06T07:51:07;5.00;99.90
54431;DHT22;40342;52.998;5.862;2024-03-06T07:53:33;4.90;99.90
54431;DHT22;40342;52.998;5.862;2024-03-06T07:55:59;5.00;99.90
54431;DHT22;40342;52.998;5.862;2024-03-06T07:58:24;4.90;99.90
54431;DHT22;40342;52.998;5.862;2024-03-06T08:00:50;5.00;99.90
54431;DHT22;40342;52.998;5.862;2024-03-06T08:03:18;5.00;99.90
54431;DHT22;40342;52.998;5.862;2024-03-06T08:05:44;5.00;99.90
54431;DHT22;40342;52.998;5.862;2024-03-06T08:08:10;5.00;99.90
54431;DHT22;40342;52.998;5.862;2024-03-06T08:10:35;5.00;99.90
54431;DHT22;40342;52.998;5.862;2024-03-06T08:13:01;5.00;99.90
54431;DHT22;40342;52.998;5.862;2024-03-06T08:15:27;5.00;99.90
54431;DHT22;40342;52.998;5.862;2024-03-06T08:17:52;5.00;99.90
54431;DHT22;40342;52.998;5.862;2024-03-06T08:20:18;5.00;99.90
54431;DHT22;40342;52.998;5.862;2024-03-06T08:22:43;5.00;99.90
54431;DHT22;40342;52.998;5.862;2024-03-06T08:25:11;5.00;99.90
54431;DHT22;40342;52.998;5.862;2024-03-06T08:27:39;5.10;99.90
54431;DHT22;40342;52.998;5.862;2024-03-06T08:30:05;5.10;99.90
54431;DHT22;40342;52.998;5.862;2024-03-06T08:32:32;5.10;99.90
54431;DHT22;40342;52.998;5.862;2024-03-06T08:35:05;5.10;99.90
54431;DHT22;40342;52.998;5.862;2024-03-06T08:37:34;5.10;99.90
54431;DHT22;40342;52.998;5.862;2024-03-06T08:40:00;5.10;99.90
54431;DHT22;40342;52.998;5.862;2024-03-06T08:42:27;5.10;99.90
54431;DHT22;40342;52.998;5.862;2024-03-06T08:44:52;5.10;99.90
54431;DHT22;40342;52.998;5.862;2024-03-06T08:47:18;5.10;99.90
54431;DHT22;40342;52.998;5.862;2024-03-06T08:49:44;5.20;99.90
54431;DHT22;40342;52.998;5.862;2024-03-06T08:52:10;5.10;99.90
54431;DHT22;40342;52.998;5.862;2024-03-06T08:54:36;5.20;99.90
54431;DHT22;40342;52.998;5.862;2024-03-06T08:57:03;5.20;99.90
54431;DHT22;40342;52.998;5.862;2024-03-06T08:59:29;5.20;99.90
54431;DHT22;40342;52.998;5.862;2024-03-06T09:01:55;5.20;99.90
54431;DHT22;40342;52.998;5.862;2024-03-06T09:04:21;5.30;99.90
54431;DHT22;40342;52.998;5.862;2024-03-06T09:06:47;5.30;99.90
54431;DHT22;40342;52.998;5.862;2024-03-06T09:09:14;5.30;99.90
54431;DHT22;40342;52.998;5.862;2024-03-06T09:11:43;5.30;99.90
54431;DHT22;40342;52.998;5.862;2024-03-06T09:14:09;5.30;99.90
54431;DHT22;40342;52.998;5.862;2024-03-06T09:16:35;5.30;99.90
54431;DHT22;40342;52.998;5.862;2024-03-06T09:19:01;5.30;99.90
54431;DHT22;40342;52.998;5.862;2024-03-06T09:21:27;5.40;99.90
54431;DHT22;40342;52.998;5.862;2024-03-06T09:23:53;5.40;99.90
54431;DHT22;40342;52.998;5.862;2024-03-06T09:26:19;5.40;99.90
54431;DHT22;40342;52.998;5.862;2024-03-06T09:28:46;5.40;99.90
54431;DHT22;40342;52.998;5.862;2024-03-06T09:31:11;5.50;99.90
54431;DHT22;40342;52.998;5.862;2024-03-06T09:33:39;5.50;99.90
54431;DHT22;40342;52.998;5.862;2024-03-06T09:36:05;5.50;99.90
54431;DHT22;40342;52.998;5.862;2024-03-06T09:38:31;5.50;99.90
54431;DHT22;40342;52.998;5.862;2024-03-06T09:40:57;5.60;99.90
54431;DHT22;40342;52.998;5.862;2024-03-06T09:43:22;5.60;99.90
54431;DHT22;40342;52.998;5.862;2024-03-06T09:45:50;5.60;99.90
54431;DHT22;40342;52.998;5.862;2024-03-06T09:48:20;5.60;99.90
54431;DHT22;40342;52.998;5.862;2024-03-06T09:50:49;5.60;99.90
54431;DHT22;40342;52.998;5.862;2024-03-06T09:53:16;5.60;99.90
54431;DHT22;40342;52.998;5.862;2024-03-06T09:55:44;5.60;99.90
54431;DHT22;40342;52.998;5.862;2024-03-06T09:58:11;5.60;99.90
54431;DHT22;40342;52.998;5.862;2024-03-06T10:00:37;5.60;99.90
54431;DHT22;40342;52.998;5.862;2024-03-06T10:03:04;5.60;99.90
54431;DHT22;40342;52.998;5.862;2024-03-06T10:05:34;5.70;99.90
54431;DHT22;40342;52.998;5.862;2024-03-06T10:08:04;5.70;99.90
54431;DHT22;40342;52.998;5.862;2024-03-06T10:10:30;5.70;99.90
54431;DHT22;40342;52.998;5.862;2024-03-06T10:12:56;5.70;99.90
54431;DHT22;40342;52.998;5.862;2024-03-06T10:15:22;5.70;99.90
54431;DHT22;40342;52.998;5.862;2024-03-06T10:17:48;5.70;99.90
54431;DHT22;40342;52.998;5.862;2024-03-06T10:22:51;5.80;99.90
54431;DHT22;40342;52.998;5.862;2024-03-06T10:25:21;5.80;99.90
54431;DHT22;40342;52.998;5.862;2024-03-06T10:28:08;5.80;99.90
54431;DHT22;40342;52.998;5.862;2024-03-06T10:30:41;5.80;99.90
54431;DHT22;40342;52.998;5.862;2024-03-06T10:33:08;5.80;99.90
54431;DHT22;40342;52.998;5.862;2024-03-06T10:35:34;5.90;99.90
54431;DHT22;40342;52.998;5.862;2024-03-06T10:38:02;5.80;99.90
54431;DHT22;40342;52.998;5.862;2024-03-06T10:40:31;5.80;99.90
54431;DHT22;40342;52.998;5.862;2024-03-06T10:43:03;5.90;99.90
54431;DHT22;40342;52.998;5.862;2024-03-06T10:45:54;5.90;99.90
54431;DHT22;40342;52.998;5.862;2024-03-06T10:48:21;5.90;99.90
54431;DHT22;40342;52.998;5.862;2024-03-06T10:50:48;5.90;99.90
54431;DHT22;40342;52.998;5.862;2024-03-06T10:53:16;5.90;99.90
54431;DHT22;40342;52.998;5.862;2024-03-06T10:55:46;5.90;99.90
54431;DHT22;40342;52.998;5.862;2024-03-06T10:58:12;5.90;99.90
54431;DHT22;40342;52.998;5.862;2024-03-06T11:00:45;5.90;99.90
54431;DHT22;40342;52.998;5.862;2024-03-06T11:03:15;5.90;99.90
54431;DHT22;40342;52.998;5.862;2024-03-06T11:05:45;6.00;99.90
54431;DHT22;40342;52.998;5.862;2024-03-06T11:08:16;6.00;99.90
54431;DHT22;40342;52.998;5.862;2024-03-06T11:10:43;6.00;99.90
54431;DHT22;40342;52.998;5.862;2024-03-06T11:15:47;6.00;99.90
54431;DHT22;40342;52.998;5.862;2024-03-06T11:20:59;6.10;99.90
54431;DHT22;40342;52.998;5.862;2024-03-06T11:23:25;6.10;99.90
54431;DHT22;40342;52.998;5.862;2024-03-06T11:28:27;6.20;99.90
54431;DHT22;40342;52.998;5.862;2024-03-06T11:30:57;6.20;99.90
54431;DHT22;40342;52.998;5.862;2024-03-06T11:33:41;6.30;99.90
54431;DHT22;40342;52.998;5.862;2024-03-06T11:36:27;6.30;99.90
54431;DHT22;40342;52.998;5.862;2024-03-06T11:39:07;6.40;99.90
54431;DHT22;40342;52.998;5.862;2024-03-06T11:41:48;6.40;99.90
54431;DHT22;40342;52.998;5.862;2024-03-06T11:44:21;6.40;99.90
54431;DHT22;40342;52.998;5.862;2024-03-06T11:46:50;6.30;99.90
54431;DHT22;40342;52.998;5.862;2024-03-06T11:49:19;6.40;99.90
54431;DHT22;40342;52.998;5.862;2024-03-06T11:51:54;6.40;99.90
54431;DHT22;40342;52.998;5.862;2024-03-06T11:54:20;6.40;99.90
54431;DHT22;40342;52.998;5.862;2024-03-06T11:56:50;6.40;99.90
54431;DHT22;40342;52.998;5.862;2024-03-06T11:59:36;6.50;99.90
54431;DHT22;40342;52.998;5.862;2024-03-06T12:02:06;6.50;99.90
54431;DHT22;40342;52.998;5.862;2024-03-06T12:04:33;6.50;99.90
54431;DHT22;40342;52.998;5.862;2024-03-06T12:07:00;6.50;99.90
54431;DHT22;40342;52.998;5.862;2024-03-06T12:09:32;6.60;99.90
54431;DHT22;40342;52.998;5.862;2024-03-06T12:11:58;6.60;99.90
54431;DHT22;40342;52.998;5.862;2024-03-06T12:14:24;6.60;99.90
54431;DHT22;40342;52.998;5.862;2024-03-06T12:16:57;6.60;99.90
54431;DHT22;40342;52.998;5.862;2024-03-06T12:19:25;6.70;99.90
54431;DHT22;40342;52.998;5.862;2024-03-06T12:21:51;6.70;99.90
54431;DHT22;40342;52.998;5.862;2024-03-06T12:24:17;6.70;99.90
54431;DHT22;40342;52.998;5.862;2024-03-06T12:26:46;6.70;99.90
54431;DHT22;40342;52.998;5.862;2024-03-06T12:29:17;6.70;99.90
54431;DHT22;40342;52.998;5.862;2024-03-06T12:31:44;6.80;99.90
54431;DHT22;40342;52.998;5.862;2024-03-06T12:34:13;6.80;99.90
54431;DHT22;40342;52.998;5.862;2024-03-06T12:36:40;6.90;99.90
54431;DHT22;40342;52.998;5.862;2024-03-06T12:39:06;6.80;99.90
54431;DHT22;40342;52.998;5.862;2024-03-06T12:41:41;6.90;99.90
54431;DHT22;40342;52.998;5.862;2024-03-06T12:44:07;6.90;99.90
54431;DHT22;40342;52.998;5.862;2024-03-06T12:46:33;7.00;99.90
54431;DHT22;40342;52.998;5.862;2024-03-06T12:48:59;7.00;99.90
54431;DHT22;40342;52.998;5.862;2024-03-06T12:51:24;7.10;99.90
54431;DHT22;40342;52.998;5.862;2024-03-06T12:53:50;7.10;99.90
54431;DHT22;40342;52.998;5.862;2024-03-06T12:56:17;7.20;99.90
54431;DHT22;40342;52.998;5.862;2024-03-06T12:58:42;7.30;99.90
54431;DHT22;40342;52.998;5.862;2024-03-06T13:01:08;7.50;99.90
54431;DHT22;40342;52.998;5.862;2024-03-06T13:03:34;7.60;99.90
54431;DHT22;40342;52.998;5.862;2024-03-06T13:06:00;7.70;99.90
54431;DHT22;40342;52.998;5.862;2024-03-06T14:05:34;10.80;99.90
54431;DHT22;40342;52.998;5.862;2024-03-06T14:08:00;11.10;99.90
54431;DHT22;40342;52.998;5.862;2024-03-06T14:10:26;11.00;99.90
54431;DHT22;40342;52.998;5.862;2024-03-06T14:12:52;11.00;99.90
54431;DHT22;40342;52.998;5.862;2024-03-06T14:15:18;11.00;99.90
54431;DHT22;40342;52.998;5.862;2024-03-06T14:17:45;10.80;99.90
54431;DHT22;40342;52.998;5.862;2024-03-06T14:20:11;10.80;99.90
54431;DHT22;40342;52.998;5.862;2024-03-06T14:22:43;10.90;99.90
54431;DHT22;40342;52.998;5.862;2024-03-06T14:25:09;11.00;99.90
54431;DHT22;40342;52.998;5.862;2024-03-06T14:27:36;11.10;99.90
54431;DHT22;40342;52.998;5.862;2024-03-06T14:30:03;11.20;99.90
54431;DHT22;40342;52.998;5.862;2024-03-06T14:32:29;11.30;99.90
54431;DHT22;40342;52.998;5.862;2024-03-06T14:34:54;11.40;99.90
54431;DHT22;40342;52.998;5.862;2024-03-06T14:37:20;11.40;99.90
54431;DHT22;40342;52.998;5.862;2024-03-06T14:39:46;11.50;99.90
54431;DHT22;40342;52.998;5.862;2024-03-06T14:42:12;11.50;99.90
54431;DHT22;40342;52.998;5.862;2024-03-06T14:44:37;11.60;99.90
54431;DHT22;40342;52.998;5.862;2024-03-06T14:47:03;11.70;99.90
54431;DHT22;40342;52.998;5.862;2024-03-06T14:49:31;11.80;99.90
54431;DHT22;40342;52.998;5.862;2024-03-06T14:51:56;11.80;99.90
54431;DHT22;40342;52.998;5.862;2024-03-06T14:54:22;11.80;99.90
54431;DHT22;40342;52.998;5.862;2024-03-06T14:56:52;11.90;99.90
54431;DHT22;40342;52.998;5.862;2024-03-06T14:59:18;11.90;99.90
54431;DHT22;40342;52.998;5.862;2024-03-06T15:01:44;12.00;99.90
54431;DHT22;40342;52.998;5.862;2024-03-06T15:04:10;12.10;99.90
54431;DHT22;40342;52.998;5.862;2024-03-06T15:06:38;12.10;99.90
54431;DHT22;40342;52.998;5.862;2024-03-06T15:09:03;12.10;99.90
54431;DHT22;40342;52.998;5.862;2024-03-06T15:11:30;12.10;99.90
54431;DHT22;40342;52.998;5.862;2024-03-06T15:13:58;12.10;99.90
54431;DHT22;40342;52.998;5.862;2024-03-06T15:16:24;12.20;99.90
54431;DHT22;40342;52.998;5.862;2024-03-06T15:18:50;12.20;99.90
54431;DHT22;40342;52.998;5.862;2024-03-06T15:21:18;12.20;99.90
54431;DHT22;40342;52.998;5.862;2024-03-06T15:23:43;12.10;99.90
54431;DHT22;40342;52.998;5.862;2024-03-06T15:26:09;12.10;99.90
54431;DHT22;40342;52.998;5.862;2024-03-06T15:28:34;12.10;99.90
54431;DHT22;40342;52.998;5.862;2024-03-06T15:31:00;12.10;99.90
54431;DHT22;40342;52.998;5.862;2024-03-06T15:33:29;12.10;99.90
54431;DHT22;40342;52.998;5.862;2024-03-06T15:35:55;12.10;99.90
54431;DHT22;40342;52.998;5.862;2024-03-06T15:38:21;12.30;99.90
54431;DHT22;40342;52.998;5.862;2024-03-06T15:40:46;12.10;99.90
54431;DHT22;40342;52.998;5.862;2024-03-06T15:43:18;12.10;99.90
54431;DHT22;40342;52.998;5.862;2024-03-06T15:45:44;12.10;99.90
54431;DHT22;40342;52.998;5.862;2024-03-06T15:48:10;12.00;99.90
54431;DHT22;40342;52.998;5.862;2024-03-06T15:50:45;12.00;99.90
54431;DHT22;40342;52.998;5.862;2024-03-06T15:53:11;12.00;99.90
54431;DHT22;40342;52.998;5.862;2024-03-06T15:55:37;12.10;99.90
54431;DHT22;40342;52.998;5.862;2024-03-06T15:58:04;12.00;99.90
54431;DHT22;40342;52.998;5.862;2024-03-06T16:00:30;11.90;99.90
54431;DHT22;40342;52.998;5.862;2024-03-06T16:02:56;11.90;99.90
54431;DHT22;40342;52.998;5.862;2024-03-06T16:05:21;11.90;99.90
54431;DHT22;40342;52.998;5.862;2024-03-06T16:07:47;11.80;99.90
54431;DHT22;40342;52.998;5.862;2024-03-06T16:10:13;11.80;99.90
54431;DHT22;40342;52.998;5.862;2024-03-06T16:12:38;11.80;99.90
54431;DHT22;40342;52.998;5.862;2024-03-06T16:15:05;11.80;99.90
54431;DHT22;40342;52.998;5.862;2024-03-06T16:17:31;12.00;99.90
54431;DHT22;40342;52.998;5.862;2024-03-06T16:19:56;12.30;99.90
54431;DHT22;40342;52.998;5.862;2024-03-06T16:22:22;12.60;99.90
54431;DHT22;40342;52.998;5.862;2024-03-06T16:24:48;12.80;99.90
54431;DHT22;40342;52.998;5.862;2024-03-06T16:27:14;13.00;99.90
54431;DHT22;40342;52.998;5.862;2024-03-06T16:29:40;13.20;99.90
54431;DHT22;40342;52.998;5.862;2024-03-06T16:32:06;13.40;99.90
54431;DHT22;40342;52.998;5.862;2024-03-06T16:34:32;13.60;99.90
54431;DHT22;40342;52.998;5.862;2024-03-06T16:36:58;13.70;99.90
54431;DHT22;40342;52.998;5.862;2024-03-06T16:39:25;13.70;99.90
54431;DHT22;40342;52.998;5.862;2024-03-06T16:41:50;13.70;99.90
54431;DHT22;40342;52.998;5.862;2024-03-06T16:44:16;13.70;99.90
54431;DHT22;40342;52.998;5.862;2024-03-06T16:46:41;13.70;99.90
54431;DHT22;40342;52.998;5.862;2024-03-06T16:49:07;13.60;99.90